Time,TemperatureF,DewpointF,PressureIn,WindDirection,WindDirectionDegrees,WindSpeedMPH,WindSpeedGustMPH,Humidity,HourlyPrecipIn,Conditions,Clouds,dailyrainin,SoftwareType,DateUTC
2013-01-04 00:00:00,11.9,7.7,29.83,NE,55,0.0,0.0,83,0.00,,,0.01,Wunderground v.1.13,2013-01-04 05:00:00,
2013-01-04 00:31:00,13.3,9.9,29.82,NE,55,0.0,0.0,86,0.00,,,0.01,Wunderground v.1.13,2013-01-04 05:31:00,
2013-01-04 01:01:00,15.7,12.8,29.81,NE,55,0.0,0.0,88,0.00,,,0.00,Wunderground v.1.13,2013-01-04 06:01:00,
2013-01-04 01:31:00,19.1,16.4,29.81,NE,55,0.0,2.0,89,0.00,,,0.00,Wunderground v.1.13,2013-01-04 06:31:00,
2013-01-04 02:00:00,21.9,18.9,29.81,SW,219,2.0,2.0,88,0.00,,,0.00,Wunderground v.1.13,2013-01-04 07:00:00,
2013-01-04 02:30:00,21.8,18.5,29.81,SW,219,0.0,1.0,87,0.00,,,0.00,Wunderground v.1.13,2013-01-04 07:30:00,
2013-01-04 03:01:00,21.9,18.9,29.80,SW,219,1.0,1.0,88,0.00,,,0.00,Wunderground v.1.13,2013-01-04 08:01:00,
2013-01-04 03:31:00,22.4,19.4,29.79,SW,221,2.0,2.0,88,0.00,,,0.00,Wunderground v.1.13,2013-01-04 08:31:00,
2013-01-04 04:01:00,23.0,20.0,29.79,SW,222,2.0,3.0,88,0.00,,,0.00,Wunderground v.1.13,2013-01-04 09:01:00,
2013-01-04 04:30:00,23.9,20.9,29.78,SW,215,3.0,3.0,88,0.00,,,0.00,Wunderground v.1.13,2013-01-04 09:30:00,
2013-01-04 05:00:00,24.7,21.7,29.77,SW,225,3.0,3.0,88,0.00,,,0.00,Wunderground v.1.13,2013-01-04 10:00:00,
2013-01-04 05:31:00,25.3,22.2,29.76,SW,217,3.0,5.0,88,0.00,,,0.00,Wunderground v.1.13,2013-01-04 10:31:00,
2013-01-04 06:01:00,26.3,22.7,29.76,SSW,213,4.0,4.0,86,0.00,,,0.00,Wunderground v.1.13,2013-01-04 11:01:00,
2013-01-04 06:31:00,27.8,23.0,29.73,SSW,205,5.0,8.0,82,0.00,,,0.00,Wunderground v.1.13,2013-01-04 11:31:00,
2013-01-04 07:00:00,28.7,22.7,29.73,SW,223,6.0,9.0,78,0.00,,,0.00,Wunderground v.1.13,2013-01-04 12:00:00,
2013-01-04 07:30:00,29.3,23.3,29.70,WSW,240,9.0,9.0,78,0.00,,,0.00,Wunderground v.1.13,2013-01-04 12:30:00,
2013-01-04 08:01:00,29.8,24.7,29.69,SSW,193,12.0,12.0,81,0.00,,,0.00,Wunderground v.1.13,2013-01-04 13:01:00,
2013-01-04 08:31:00,30.3,25.5,29.68,WSW,238,10.0,11.0,82,0.00,,,0.00,Wunderground v.1.13,2013-01-04 13:31:00,
2013-01-04 09:01:00,30.9,25.8,29.70,SSW,209,8.0,10.0,81,0.00,,,0.00,Wunderground v.1.13,2013-01-04 14:01:00,
2013-01-04 09:30:00,31.3,25.8,29.72,SW,216,8.0,9.0,80,0.00,,,0.00,Wunderground v.1.13,2013-01-04 14:30:00,
2013-01-04 10:00:00,31.5,25.4,29.72,SW,223,7.0,7.0,78,0.00,,,0.00,Wunderground v.1.13,2013-01-04 15:00:00,
2013-01-04 11:30:00,31.3,26.1,29.67,SW,225,9.0,22.0,81,0.01,,,0.01,Wunderground v.1.13,2013-01-04 16:30:00,
2013-01-04 13:00:00,31.8,26.0,29.65,West,262,9.0,14.0,79,0.00,,,0.01,Wunderground v.1.13,2013-01-04 18:00:00,
2013-01-04 13:30:00,31.9,25.8,29.66,SW,233,8.0,8.0,78,0.00,,,0.01,Wunderground v.1.13,2013-01-04 18:30:00,
2013-01-04 14:00:00,32.1,25.7,29.66,SW,215,9.0,22.0,77,0.00,,,0.01,Wunderground v.1.13,2013-01-04 19:00:00,
2013-01-04 14:30:00,32.1,25.7,29.66,WSW,243,9.0,9.0,77,0.00,,,0.01,Wunderground v.1.13,2013-01-04 19:30:00,
2013-01-04 15:00:00,31.8,25.4,29.66,WSW,238,8.0,8.0,77,0.00,,,0.01,Wunderground v.1.13,2013-01-04 20:00:00,
2013-01-04 15:30:00,31.5,24.8,29.66,WSW,254,11.0,11.0,76,0.00,,,0.01,Wunderground v.1.13,2013-01-04 20:30:00,
2013-01-04 16:00:00,31.2,24.5,29.67,SW,219,10.0,22.0,76,0.00,,,0.01,Wunderground v.1.13,2013-01-04 21:00:00,
2013-01-04 16:30:00,31.0,24.6,29.68,SW,232,7.0,7.0,77,0.00,,,0.01,Wunderground v.1.13,2013-01-04 21:30:00,
2013-01-04 17:00:00,31.0,24.0,29.68,WSW,248,9.0,22.0,75,0.00,,,0.01,Wunderground v.1.13,2013-01-04 22:00:00,
2013-01-04 17:30:00,30.9,24.5,29.68,WSW,240,9.0,22.0,77,0.00,,,0.01,Wunderground v.1.13,2013-01-04 22:30:00,
2013-01-04 18:00:00,30.9,24.5,29.69,SW,223,8.0,8.0,77,0.00,,,0.01,Wunderground v.1.13,2013-01-04 23:00:00,
2013-01-04 18:30:00,30.7,25.0,29.70,WSW,249,9.0,9.0,79,0.00,,,0.01,Wunderground v.1.13,2013-01-04 23:30:00,
2013-01-04 19:00:00,30.9,25.2,29.70,WSW,241,9.0,9.0,79,0.00,,,0.01,Wunderground v.1.13,2013-01-05 00:00:00,
2013-01-04 19:30:00,30.9,25.2,29.70,WSW,246,8.0,22.0,79,0.00,,,0.01,Wunderground v.1.13,2013-01-05 00:30:00,
2013-01-04 20:00:00,31.0,24.9,29.71,SW,228,9.0,9.0,78,0.00,,,0.01,Wunderground v.1.13,2013-01-05 01:00:00,
2013-01-04 20:30:00,31.0,25.2,29.70,SSW,199,7.0,7.0,79,0.00,,,0.01,Wunderground v.1.13,2013-01-05 01:30:00,
2013-01-04 21:00:00,31.2,25.4,29.70,West,263,7.0,7.0,79,0.00,,,0.01,Wunderground v.1.13,2013-01-05 02:00:00,
2013-01-04 21:30:00,31.0,24.9,29.70,SW,221,9.0,9.0,78,0.00,,,0.01,Wunderground v.1.13,2013-01-05 02:30:00,
2013-01-04 22:00:00,31.0,24.9,29.70,SW,223,9.0,9.0,78,0.00,,,0.01,Wunderground v.1.13,2013-01-05 03:00:00,
2013-01-04 22:30:00,31.0,24.3,29.71,West,259,10.0,10.0,76,0.00,,,0.01,Wunderground v.1.13,2013-01-05 03:30:00,
2013-01-04 23:00:00,30.9,25.8,29.72,SW,235,8.0,8.0,81,0.00,,,0.01,Wunderground v.1.13,2013-01-05 04:00:00,
2013-01-04 23:30:00,31.2,25.7,29.72,SW,215,8.0,8.0,80,0.00,,,0.01,Wunderground v.1.13,2013-01-05 04:30:00,